TOM8322 LGKR-LGKO
Flight info
| Callsign | TOM8322 |
|---|---|
| Flight time | 1h 1m |
| Altitude | 31000 |
| Route | MALED UA14 ARA UL612 TRL UM601 GILOS |
| Aircraft | B738/M-SDFGHIJ1RWXYZ/LB1 |
Departure
| Time | 2026-05-04 15:50 |
|---|---|
| Airport | Corfu Ioannis Kapodistrias International Airport (LGKR) |
Arrival
| Time | 2026-05-04 16:51 |
|---|---|
| Airport | Kos International Airport "Ippokratis" (LGKO) |
| Time | Latitude | Longitude | Altitude | Speed | Heading |
|---|---|---|---|---|---|
| 2026-05-04 15:11 | 39.60628 | 19.91361 | 20 ft | 0 kts | 80° |
| 2026-05-04 15:40 | 39.60628 | 19.91356 | 19 ft | 2 kts | 79° |
| 2026-05-04 15:41 | 39.60624 | 19.91333 | 20 ft | 3 kts | 75° |
| 2026-05-04 15:41 | 39.60618 | 19.91308 | 19 ft | 3 kts | 64° |
| 2026-05-04 15:41 | 39.60608 | 19.91288 | 19 ft | 3 kts | 30° |
| 2026-05-04 15:41 | 39.60598 | 19.91282 | 18 ft | 2 kts | 324° |
| 2026-05-04 15:42 | 39.60589 | 19.91292 | 20 ft | 3 kts | 320° |
| 2026-05-04 15:42 | 39.60574 | 19.91309 | 17 ft | 3 kts | 320° |
| 2026-05-04 15:42 | 39.60560 | 19.91324 | 20 ft | 2 kts | 319° |
| 2026-05-04 15:42 | 39.60558 | 19.91327 | 20 ft | 0 kts | 319° |
| 2026-05-04 15:46 | 39.60572 | 19.91311 | 17 ft | 7 kts | 319° |
| 2026-05-04 15:46 | 39.60618 | 19.91259 | 19 ft | 10 kts | 319° |
| 2026-05-04 15:46 | 39.60677 | 19.91222 | 17 ft | 9 kts | 349° |
| 2026-05-04 15:47 | 39.60740 | 19.91206 | 17 ft | 9 kts | 348° |
| 2026-05-04 15:47 | 39.60801 | 19.91190 | 17 ft | 9 kts | 349° |
| 2026-05-04 15:47 | 39.60861 | 19.91175 | 19 ft | 9 kts | 348° |
| 2026-05-04 15:47 | 39.60919 | 19.91159 | 19 ft | 8 kts | 348° |
| 2026-05-04 15:48 | 39.60975 | 19.91144 | 18 ft | 8 kts | 348° |
| 2026-05-04 15:48 | 39.61030 | 19.91129 | 18 ft | 8 kts | 348° |
| 2026-05-04 15:48 | 39.61134 | 19.91101 | 18 ft | 7 kts | 349° |
| 2026-05-04 15:49 | 39.61184 | 19.91087 | 18 ft | 7 kts | 340° |
| 2026-05-04 15:49 | 39.61217 | 19.91042 | 19 ft | 7 kts | 299° |
| 2026-05-04 15:49 | 39.61238 | 19.90987 | 20 ft | 7 kts | 295° |
| 2026-05-04 15:49 | 39.61232 | 19.90944 | 20 ft | 5 kts | 190° |
| 2026-05-04 15:50 | 39.61185 | 19.90955 | 20 ft | 14 kts | 167° |
| 2026-05-04 15:50 | 39.60818 | 19.91052 | 20 ft | 93 kts | 168° |
| 2026-05-04 15:50 | 39.59950 | 19.91281 | 30 ft | 158 kts | 169° |
| 2026-05-04 15:50 | 39.58851 | 19.91607 | 727 ft | 163 kts | 169° |
| 2026-05-04 15:51 | 39.57775 | 19.92242 | 1319 ft | 185 kts | 136° |
| 2026-05-04 15:51 | 39.57159 | 19.93807 | 1727 ft | 211 kts | 101° |
| 2026-05-04 15:51 | 39.56772 | 19.95663 | 2413 ft | 218 kts | 118° |
| 2026-05-04 15:51 | 39.55737 | 19.97093 | 3055 ft | 222 kts | 146° |
| 2026-05-04 15:52 | 39.54374 | 19.98073 | 3703 ft | 227 kts | 152° |
| 2026-05-04 15:52 | 39.52996 | 19.99070 | 4316 ft | 233 kts | 147° |
| 2026-05-04 15:52 | 39.51625 | 20.00196 | 5026 ft | 235 kts | 144° |
| 2026-05-04 15:52 | 39.50271 | 20.01418 | 5736 ft | 239 kts | 142° |
| 2026-05-04 15:53 | 39.48936 | 20.02700 | 6630 ft | 238 kts | 140° |
| 2026-05-04 15:53 | 39.47610 | 20.04018 | 7344 ft | 244 kts | 140° |
| 2026-05-04 15:53 | 39.46258 | 20.05404 | 7984 ft | 253 kts | 137° |
| 2026-05-04 15:53 | 39.44859 | 20.06985 | 8228 ft | 281 kts | 136° |
| 2026-05-04 15:54 | 39.43367 | 20.08726 | 8784 ft | 294 kts | 136° |
| 2026-05-04 15:54 | 39.41850 | 20.10500 | 9529 ft | 301 kts | 136° |
| 2026-05-04 15:54 | 39.40279 | 20.12331 | 10284 ft | 306 kts | 136° |
| 2026-05-04 15:54 | 39.38668 | 20.14258 | 10637 ft | 326 kts | 129° |
| 2026-05-04 15:55 | 39.37399 | 20.16783 | 10839 ft | 345 kts | 114° |
| 2026-05-04 15:55 | 39.36313 | 20.19667 | 11006 ft | 367 kts | 112° |
| 2026-05-04 15:55 | 39.35204 | 20.22731 | 11301 ft | 383 kts | 112° |
| 2026-05-04 15:55 | 39.34058 | 20.25884 | 11849 ft | 391 kts | 112° |
| 2026-05-04 15:56 | 39.32878 | 20.29076 | 12508 ft | 396 kts | 112° |
| 2026-05-04 15:56 | 39.31682 | 20.32258 | 13172 ft | 401 kts | 112° |
| 2026-05-04 15:56 | 39.30425 | 20.35564 | 13735 ft | 409 kts | 112° |
| 2026-05-04 15:56 | 39.29172 | 20.38829 | 14298 ft | 413 kts | 112° |
| 2026-05-04 15:57 | 39.27884 | 20.42163 | 14902 ft | 416 kts | 113° |
| 2026-05-04 15:57 | 39.26582 | 20.45522 | 15474 ft | 421 kts | 113° |
| 2026-05-04 15:57 | 39.25263 | 20.48918 | 16031 ft | 426 kts | 112° |
| 2026-05-04 15:57 | 39.23926 | 20.52358 | 16536 ft | 432 kts | 112° |
| 2026-05-04 15:58 | 39.22568 | 20.55846 | 17073 ft | 436 kts | 112° |
| 2026-05-04 15:58 | 39.21199 | 20.59356 | 17643 ft | 440 kts | 112° |
| 2026-05-04 15:58 | 39.19814 | 20.62905 | 18212 ft | 444 kts | 112° |
| 2026-05-04 15:58 | 39.18416 | 20.66481 | 18704 ft | 448 kts | 112° |
| 2026-05-04 15:59 | 39.17007 | 20.70084 | 19157 ft | 452 kts | 112° |
| 2026-05-04 15:59 | 39.15585 | 20.73715 | 19660 ft | 455 kts | 112° |
| 2026-05-04 15:59 | 39.14173 | 20.77315 | 20127 ft | 458 kts | 112° |
| 2026-05-04 15:59 | 39.12729 | 20.80993 | 20608 ft | 461 kts | 112° |
| 2026-05-04 16:00 | 39.11273 | 20.84697 | 21004 ft | 466 kts | 112° |
| 2026-05-04 16:00 | 39.09803 | 20.88436 | 21411 ft | 470 kts | 112° |
| 2026-05-04 16:00 | 39.08318 | 20.92205 | 21858 ft | 472 kts | 113° |
| 2026-05-04 16:00 | 39.06826 | 20.95984 | 22299 ft | 475 kts | 113° |
| 2026-05-04 16:01 | 39.05325 | 20.99785 | 22704 ft | 478 kts | 113° |
| 2026-05-04 16:01 | 39.03813 | 21.03609 | 23115 ft | 481 kts | 113° |
| 2026-05-04 16:01 | 39.02287 | 21.07461 | 23502 ft | 484 kts | 113° |
| 2026-05-04 16:01 | 39.00756 | 21.11324 | 23851 ft | 486 kts | 113° |
| 2026-05-04 16:02 | 38.99210 | 21.15218 | 24168 ft | 489 kts | 113° |
| 2026-05-04 16:02 | 38.97675 | 21.19081 | 24409 ft | 494 kts | 113° |
| 2026-05-04 16:02 | 38.94520 | 21.27008 | 25040 ft | 499 kts | 113° |
| 2026-05-04 16:03 | 38.92930 | 21.30991 | 25347 ft | 502 kts | 113° |
| 2026-05-04 16:03 | 38.91331 | 21.34992 | 25660 ft | 505 kts | 113° |
| 2026-05-04 16:03 | 38.89746 | 21.38952 | 25972 ft | 506 kts | 113° |
| 2026-05-04 16:03 | 38.88128 | 21.42994 | 26226 ft | 510 kts | 113° |
| 2026-05-04 16:04 | 38.86501 | 21.47051 | 26478 ft | 512 kts | 113° |
| 2026-05-04 16:04 | 38.83219 | 21.55215 | 27028 ft | 517 kts | 113° |
| 2026-05-04 16:04 | 38.81566 | 21.59319 | 27409 ft | 517 kts | 113° |
| 2026-05-04 16:05 | 38.79916 | 21.63407 | 27827 ft | 515 kts | 113° |
| 2026-05-04 16:05 | 38.78288 | 21.67438 | 28230 ft | 515 kts | 113° |
| 2026-05-04 16:05 | 38.74987 | 21.75596 | 28984 ft | 516 kts | 113° |
| 2026-05-04 16:06 | 38.73332 | 21.79680 | 29425 ft | 516 kts | 113° |
| 2026-05-04 16:06 | 38.68919 | 21.90540 | 30405 ft | 517 kts | 113° |
| 2026-05-04 16:07 | 38.66697 | 21.95995 | 30900 ft | 515 kts | 113° |
| 2026-05-04 16:07 | 38.61707 | 22.08209 | 31108 ft | 516 kts | 113° |
| 2026-05-04 16:08 | 38.60047 | 22.12258 | 31103 ft | 513 kts | 113° |
| 2026-05-04 16:09 | 38.51797 | 22.32320 | 31109 ft | 511 kts | 113° |
| 2026-05-04 16:10 | 38.45714 | 22.47034 | 31154 ft | 512 kts | 113° |
| 2026-05-04 16:11 | 38.39041 | 22.63090 | 31107 ft | 511 kts | 113° |
| 2026-05-04 16:12 | 38.29038 | 22.87007 | 31116 ft | 510 kts | 114° |
| 2026-05-04 16:13 | 38.22358 | 23.02878 | 31128 ft | 508 kts | 114° |
| 2026-05-04 16:14 | 38.15674 | 23.18682 | 31126 ft | 507 kts | 114° |
| 2026-05-04 16:16 | 38.07325 | 23.38306 | 31119 ft | 504 kts | 114° |
| 2026-05-04 16:17 | 37.98994 | 23.57771 | 31104 ft | 500 kts | 115° |
| 2026-05-04 16:18 | 37.92375 | 23.73152 | 31131 ft | 497 kts | 115° |
| 2026-05-04 16:19 | 37.87448 | 23.84547 | 31120 ft | 484 kts | 115° |
| 2026-05-04 16:19 | 37.84207 | 23.92028 | 31134 ft | 486 kts | 115° |
| 2026-05-04 16:20 | 37.76506 | 24.11073 | 31135 ft | 478 kts | 111° |
| 2026-05-04 16:22 | 37.69641 | 24.29943 | 31124 ft | 474 kts | 112° |
| 2026-05-04 16:23 | 37.61238 | 24.52403 | 31119 ft | 466 kts | 113° |
| 2026-05-04 16:24 | 37.55635 | 24.67308 | 31118 ft | 480 kts | 112° |
| 2026-05-04 16:25 | 37.52756 | 24.74934 | 31106 ft | 481 kts | 113° |
| 2026-05-04 16:26 | 37.42690 | 25.01441 | 31119 ft | 478 kts | 113° |
| 2026-05-04 16:27 | 37.39844 | 25.08892 | 31089 ft | 466 kts | 113° |
| 2026-05-04 16:28 | 37.35615 | 25.19940 | 31108 ft | 469 kts | 113° |
| 2026-05-04 16:28 | 37.31354 | 25.31029 | 30700 ft | 465 kts | 114° |
| 2026-05-04 16:29 | 37.25801 | 25.45414 | 28129 ft | 448 kts | 113° |
| 2026-05-04 16:30 | 37.21787 | 25.55772 | 26535 ft | 432 kts | 113° |
| 2026-05-04 16:31 | 37.19182 | 25.62480 | 25508 ft | 424 kts | 113° |
| 2026-05-04 16:31 | 37.15335 | 25.72363 | 24000 ft | 419 kts | 113° |
| 2026-05-04 16:32 | 37.11433 | 25.82360 | 22311 ft | 422 kts | 113° |
| 2026-05-04 16:33 | 37.08867 | 25.88901 | 21272 ft | 413 kts | 113° |
| 2026-05-04 16:33 | 37.06354 | 25.95300 | 20260 ft | 406 kts | 113° |
| 2026-05-04 16:34 | 37.03897 | 26.01549 | 19283 ft | 400 kts | 113° |
| 2026-05-04 16:34 | 37.02669 | 26.04667 | 18797 ft | 397 kts | 113° |
| 2026-05-04 16:35 | 36.99027 | 26.13895 | 17232 ft | 390 kts | 113° |
| 2026-05-04 16:35 | 36.95462 | 26.22902 | 15796 ft | 381 kts | 112° |
| 2026-05-04 16:36 | 36.94290 | 26.25856 | 15333 ft | 378 kts | 112° |
| 2026-05-04 16:36 | 36.91962 | 26.31724 | 14411 ft | 378 kts | 112° |
| 2026-05-04 16:37 | 36.89623 | 26.37605 | 13422 ft | 378 kts | 112° |
| 2026-05-04 16:37 | 36.88454 | 26.40543 | 12911 ft | 377 kts | 113° |
| 2026-05-04 16:37 | 36.86135 | 26.46353 | 11955 ft | 370 kts | 113° |
| 2026-05-04 16:38 | 36.83854 | 26.52058 | 11036 ft | 364 kts | 114° |
| 2026-05-04 16:39 | 36.80584 | 26.60216 | 10469 ft | 335 kts | 114° |
| 2026-05-04 16:39 | 36.78551 | 26.65277 | 10169 ft | 318 kts | 114° |
| 2026-05-04 16:40 | 36.76625 | 26.70072 | 9731 ft | 308 kts | 114° |
| 2026-05-04 16:40 | 36.74718 | 26.74815 | 9105 ft | 304 kts | 114° |
| 2026-05-04 16:41 | 36.72825 | 26.79513 | 8495 ft | 301 kts | 113° |
| 2026-05-04 16:41 | 36.70020 | 26.86460 | 7596 ft | 296 kts | 112° |
| 2026-05-04 16:42 | 36.67263 | 26.93272 | 6726 ft | 292 kts | 113° |
| 2026-05-04 16:43 | 36.65442 | 26.97764 | 6110 ft | 288 kts | 112° |
| 2026-05-04 16:43 | 36.63654 | 27.02169 | 5169 ft | 285 kts | 112° |
| 2026-05-04 16:43 | 36.62761 | 27.04373 | 4853 ft | 284 kts | 112° |
| 2026-05-04 16:44 | 36.59585 | 27.12955 | 3953 ft | 256 kts | 84° |
| 2026-05-04 16:45 | 36.60388 | 27.16939 | 3641 ft | 229 kts | 61° |
| 2026-05-04 16:46 | 36.62882 | 27.20791 | 3385 ft | 164 kts | 4° |
| 2026-05-04 16:46 | 36.64917 | 27.20403 | 3315 ft | 149 kts | 331° |
| 2026-05-04 16:47 | 36.66564 | 27.19146 | 3091 ft | 135 kts | 329° |
| 2026-05-04 16:47 | 36.68110 | 27.17936 | 2725 ft | 130 kts | 329° |
| 2026-05-04 16:48 | 36.70390 | 27.16159 | 2243 ft | 128 kts | 329° |
| 2026-05-04 16:48 | 36.71145 | 27.15574 | 2083 ft | 128 kts | 329° |
| 2026-05-04 16:49 | 36.72649 | 27.14407 | 1752 ft | 127 kts | 329° |
| 2026-05-04 16:49 | 36.74147 | 27.13243 | 1431 ft | 127 kts | 329° |
| 2026-05-04 16:50 | 36.75684 | 27.12056 | 1082 ft | 134 kts | 328° |
| 2026-05-04 16:50 | 36.77270 | 27.10809 | 693 ft | 134 kts | 329° |
| 2026-05-04 16:51 | 36.78901 | 27.09547 | 399 ft | 140 kts | 329° |
| 2026-05-04 16:51 | 36.79582 | 27.09017 | 413 ft | 88 kts | 328° |
| 2026-05-04 16:51 | 36.80050 | 27.08653 | 411 ft | 22 kts | 328° |
| 2026-05-04 16:52 | 36.80274 | 27.08479 | 418 ft | 14 kts | 327° |
| 2026-05-04 16:52 | 36.80338 | 27.08448 | 413 ft | 10 kts | 23° |
| 2026-05-04 16:53 | 36.80336 | 27.08608 | 420 ft | 10 kts | 105° |
| 2026-05-04 16:53 | 36.80205 | 27.08772 | 417 ft | 9 kts | 147° |
| 2026-05-04 16:54 | 36.80156 | 27.08810 | 410 ft | 5 kts | 147° |
| 2026-05-04 16:55 | 36.80182 | 27.08904 | 416 ft | 0 kts | 58° |